Time;durP1;ratioP1;P1;durP2;ratioP2;P2;SDS_P1;SDS_P2;PMS_P1;PMS_P2;Temp;Humidity;BMP_temperature;BMP_pressure;BME280_temperature;BME280_humidity;BME280_pressure;Samples;Min_cycle;Max_cycle;Signal;HPM_P1;HPM_P2
2022/11/19 00:02:04;;;;;;;0.90;0.80;;;;;;;-141.28;100.00;48658.34;5112425;28;20211;-77
2022/11/19 00:04:31;;;;;;;2.07;0.80;;;;;;;-141.28;100.00;48650.50;5111938;28;20283;-78
2022/11/19 00:06:58;;;;;;;0.73;0.73;;;;;;;-141.28;100.00;48650.50;5112134;28;20203;-78
2022/11/19 00:09:25;;;;;;;0.67;0.67;;;;;;;-141.28;100.00;48648.53;5112059;28;20194;-79
2022/11/19 00:14:36;;;;;;;0.60;0.60;;;;;;;-141.28;100.00;48619.09;5112001;28;20720;-78
2022/11/19 00:17:04;;;;;;;1.30;0.93;;;;;;;-141.28;100.00;48615.19;5109809;28;20195;-76
2022/11/19 00:19:31;;;;;;;2.00;0.50;;;;;;;-141.28;100.00;48579.88;5111816;28;20280;-76
2022/11/19 00:21:59;;;;;;;0.67;0.57;;;;;;;-141.28;100.00;48619.09;5111193;28;20251;-76
2022/11/19 00:24:27;;;;;;;1.17;0.53;;;;;;;-141.28;100.00;48611.25;5108889;28;20233;-77
2022/11/19 00:26:55;;;;;;;0.40;0.30;;;;;;;-141.28;100.00;48619.09;5115265;28;20234;-79
2022/11/19 00:29:23;;;;;;;3.07;0.53;;;;;;;-141.28;100.00;48611.25;5115734;28;20203;-77
2022/11/19 00:31:50;;;;;;;1.37;0.43;;;;;;;-141.28;100.00;48611.25;5115905;28;20681;-78
2022/11/19 00:34:19;;;;;;;0.33;0.33;;;;;;;-141.28;100.00;48603.41;5114650;28;20260;-78
2022/11/19 00:36:46;;;;;;;1.27;0.70;;;;;;;-141.28;100.00;48599.47;5115941;28;20205;-77
2022/11/19 00:39:13;;;;;;;1.80;0.43;;;;;;;-141.28;100.00;48575.94;5118719;28;20195;-76
2022/11/19 00:41:40;;;;;;;1.23;0.50;;;;;;;-141.28;100.00;48587.72;5121019;28;20199;-75
2022/11/19 00:44:07;;;;;;;1.87;0.60;;;;;;;-141.28;100.00;48583.78;5118276;28;20207;-78
2022/11/19 00:46:33;;;;;;;0.40;0.40;;;;;;;-141.28;100.00;48556.31;5116812;28;20206;-76
2022/11/19 00:49:01;;;;;;;0.50;0.50;;;;;;;-141.28;100.00;48542.59;5116146;28;20199;-78
2022/11/19 00:51:30;;;;;;;2.77;0.40;;;;;;;-141.28;100.00;48505.31;5116770;28;20205;-77
2022/11/19 00:53:58;;;;;;;0.60;0.60;;;;;;;-141.28;100.00;48554.34;5115145;28;20209;-78
2022/11/19 00:56:26;;;;;;;1.20;0.40;;;;;;;-141.28;100.00;48536.69;5104672;28;20382;-76
2022/11/19 00:58:54;;;;;;;0.73;0.40;;;;;;;-141.28;100.00;48532.78;5114377;28;20244;-78
2022/11/19 01:01:24;;;;;;;1.17;0.70;;;;;;;-141.28;100.00;48530.81;5115660;28;20211;-76
2022/11/19 01:03:51;;;;;;;1.17;0.50;;;;;;;-141.28;100.00;48536.69;5115647;28;20210;-79
2022/11/19 01:06:20;;;;;;;0.40;0.40;;;;;;;-141.28;100.00;48540.63;5114909;28;20757;-78
2022/11/19 01:08:49;;;;;;;0.63;0.43;;;;;;;-141.28;100.00;48538.66;5115213;28;20199;-76
2022/11/19 01:11:19;;;;;;;0.70;0.40;;;;;;;-141.28;100.00;48548.47;5115278;28;20669;-76
2022/11/19 01:13:46;;;;;;;0.33;0.33;;;;;;;-141.28;100.00;48550.44;5115318;28;20211;-74
2022/11/19 01:16:15;;;;;;;0.80;0.50;;;;;;;-141.28;100.00;48552.41;5115595;28;20199;-78
2022/11/19 01:18:43;;;;;;;4.10;1.77;;;;;;;-141.28;100.00;48540.63;5114548;28;20231;-77
2022/11/19 01:21:11;;;;;;;6.63;2.70;;;;;;;-141.28;100.00;48552.41;5114952;28;20211;-75
2022/11/19 01:23:39;;;;;;;5.10;2.17;;;;;;;-141.28;100.00;48568.09;5114889;28;20198;-78
2022/11/19 01:26:08;;;;;;;2.80;1.20;;;;;;;-141.28;100.00;48575.94;5115556;28;20280;-77
2022/11/19 01:28:36;;;;;;;1.43;0.90;;;;;;;-141.28;100.00;48585.75;5115547;28;20207;-78
2022/11/19 01:31:07;;;;;;;1.67;0.90;;;;;;;-141.28;100.00;48587.72;5115425;28;20256;-75
2022/11/19 01:33:34;;;;;;;0.90;0.90;;;;;;;-141.28;100.00;48585.75;5117146;28;20205;-75
2022/11/19 01:36:03;;;;;;;2.37;0.80;;;;;;;-141.28;100.00;48609.28;5131508;28;20190;-73
2022/11/19 01:38:30;;;;;;;1.40;1.20;;;;;;;-141.28;100.00;48607.31;5121589;28;20259;-74
2022/11/19 01:40:57;;;;;;;1.77;1.03;;;;;;;-141.28;100.00;48617.13;5125194;28;20203;-75
2022/11/19 01:43:42;;;;;;;1.87;1.20;;;;;;;-141.28;100.00;48619.09;5127066;28;20198;-78
2022/11/19 01:46:09;;;;;;;1.87;1.03;;;;;;;-141.28;100.00;48607.31;5123534;28;20287;-78
2022/11/19 01:48:41;;;;;;;2.87;1.40;;;;;;;-141.28;100.00;48630.88;5115009;28;20256;-75
2022/11/19 01:51:12;;;;;;;1.50;1.30;;;;;;;-141.28;100.00;48638.72;5115453;28;20202;-77
2022/11/19 01:53:40;;;;;;;2.20;1.20;;;;;;;-141.28;100.00;48648.53;5102464;28;20264;-79
2022/11/19 01:56:08;;;;;;;2.07;1.20;;;;;;;-141.28;100.00;48666.19;5114460;28;20753;-76
2022/11/19 01:58:38;;;;;;;1.90;1.40;;;;;;;-141.28;100.00;48662.25;5114854;28;20190;-76
2022/11/19 02:01:08;;;;;;;1.90;1.60;;;;;;;-141.28;100.00;48623.03;5116962;28;20203;-78
2022/11/19 02:03:38;;;;;;;3.57;1.97;;;;;;;-141.28;100.00;48697.56;5114642;28;20207;-75
2022/11/19 02:06:05;;;;;;;7.00;2.23;;;;;;;-141.28;100.00;48638.72;5114119;28;20223;-78
2022/11/19 02:08:36;;;;;;;3.90;1.87;;;;;;;-141.28;100.00;48709.34;5114042;28;20203;-76
2022/11/19 02:11:18;;;;;;;3.47;2.10;;;;;;;-141.28;100.00;48713.25;5115732;28;20286;-75
2022/11/19 02:13:54;;;;;;;11.47;2.87;;;;;;;-141.28;100.00;48717.19;5120257;28;20206;-74
2022/11/19 02:16:30;;;;;;;5.97;2.37;;;;;;;-141.28;100.00;48717.19;5119650;28;20798;-75
2022/11/19 02:19:10;;;;;;;9.43;3.13;;;;;;;-141.28;100.00;48744.66;5107309;28;20228;-75
2022/11/19 02:21:48;;;;;;;4.63;2.67;;;;;;;-141.28;100.00;48730.91;5123089;28;20548;-75
2022/11/19 02:24:36;;;;;;;7.00;2.53;;;;;;;-141.28;100.00;48728.97;5119453;28;20559;-74
2022/11/19 02:27:33;;;;;;;5.83;2.67;;;;;;;-141.28;100.00;48699.53;5114788;28;20203;-75
2022/11/19 02:30:09;;;;;;;6.53;2.93;;;;;;;-141.28;100.00;48666.19;5114245;28;20690;-77
2022/11/19 02:32:45;;;;;;;9.57;3.50;;;;;;;-141.28;100.00;48646.56;5100714;28;20433;-76
2022/11/19 02:35:18;;;;;;;5.67;2.70;;;;;;;-141.28;100.00;48713.25;5113763;28;20266;-78
2022/11/19 02:37:52;;;;;;;6.63;2.80;;;;;;;-141.28;100.00;48689.72;5113687;28;20248;-78
2022/11/19 02:40:24;;;;;;;8.97;3.67;;;;;;;-141.28;100.00;48783.91;5113294;28;20195;-75
2022/11/19 02:42:59;;;;;;;9.23;3.70;;;;;;;-141.28;100.00;48830.97;5113774;28;20506;-79
2022/11/19 02:45:33;;;;;;;12.87;4.43;;;;;;;-141.28;100.00;48846.69;5113545;28;20287;-76
2022/11/19 02:48:04;;;;;;;8.83;4.03;;;;;;;-141.28;100.00;48829.00;5113128;28;20260;-75
2022/11/19 02:50:34;;;;;;;6.37;2.67;;;;;;;-141.28;100.00;48834.91;5113276;28;20240;-76
2022/11/19 02:53:03;;;;;;;5.30;2.63;;;;;;;-141.28;100.00;48834.91;5113454;28;20639;-77
2022/11/19 02:55:30;;;;;;;4.57;2.33;;;;;;;-141.28;100.00;48866.28;5113385;28;20677;-78
2022/11/19 02:58:02;;;;;;;3.70;2.20;;;;;;;-141.28;100.00;48885.91;5113614;28;20663;-76
2022/11/19 03:06:12;;;;;;;3.97;2.40;;;;;;;-141.28;100.00;48850.59;5113216;28;20237;-75
2022/11/19 03:08:39;;;;;;;2.80;2.00;;;;;;;-141.28;100.00;48795.66;5113446;28;20263;-77
2022/11/19 03:11:15;;;;;;;3.03;2.20;;;;;;;-141.28;100.00;48907.50;5112057;28;20654;-75
2022/11/19 03:16:42;;;;;;;2.67;2.07;;;;;;;-141.28;100.00;48897.69;5068953;28;20199;-74
2022/11/19 03:19:26;;;;;;;6.17;2.60;;;;;;;-141.28;100.00;48882.00;5109986;28;20288;-76
2022/11/19 03:21:58;;;;;;;4.43;2.83;;;;;;;-141.28;100.00;48889.84;5105869;28;20198;-77
2022/11/19 03:24:30;;;;;;;6.03;3.47;;;;;;;-141.28;100.00;48934.97;5100028;28;20632;-77
2022/11/19 03:27:02;;;;;;;3.67;2.23;;;;;;;-141.28;100.00;48968.31;5111818;28;20230;-77
2022/11/19 03:29:35;;;;;;;2.63;2.20;;;;;;;-141.28;100.00;48987.94;5113065;28;20251;-77
2022/11/19 03:32:08;;;;;;;3.23;2.47;;;;;;;-141.28;100.00;49019.31;5111172;28;20248;-76
2022/11/19 03:34:38;;;;;;;3.70;2.37;;;;;;;-141.28;100.00;49042.88;5112731;28;20279;-79
2022/11/19 03:37:07;;;;;;;3.43;2.57;;;;;;;-141.28;100.00;49050.72;5112273;28;20214;-76
2022/11/19 03:39:36;;;;;;;3.60;2.60;;;;;;;-141.28;100.00;49084.06;5112598;28;20207;-76
2022/11/19 03:42:06;;;;;;;3.30;2.60;;;;;;;-141.28;100.00;49089.97;5112152;28;20203;-76
2022/11/19 03:44:39;;;;;;;6.73;2.50;;;;;;;-141.28;100.00;49133.13;5112679;28;20208;-76
2022/11/19 03:47:12;;;;;;;6.23;2.70;;;;;;;-141.28;100.00;49119.38;5112106;28;20656;-78
2022/11/19 03:49:43;;;;;;;6.43;3.20;;;;;;;-141.28;100.00;49148.81;5111452;28;20206;-76
2022/11/19 03:52:13;;;;;;;3.40;2.33;;;;;;;-141.28;100.00;49125.28;5099984;28;20203;-77
2022/11/19 03:54:41;;;;;;;3.87;2.80;;;;;;;-141.28;100.00;49144.91;5112034;28;20448;-78
2022/11/19 03:57:10;;;;;;;5.33;3.77;;;;;;;-141.28;100.00;49199.84;5112056;28;20518;-74
2022/11/19 03:59:39;;;;;;;7.93;4.60;;;;;;;-141.28;100.00;49262.63;5111705;28;20456;-75
2022/11/19 04:02:10;;;;;;;9.17;5.23;;;;;;;-141.28;100.00;49276.38;5116615;28;20517;-76
2022/11/19 04:04:38;;;;;;;7.53;6.30;;;;;;;-141.28;100.00;49278.31;5113816;28;20474;-76
2022/11/19 04:07:09;;;;;;;9.37;5.90;;;;;;;-141.28;100.00;49270.47;5115230;28;20484;-76
2022/11/19 04:09:37;;;;;;;8.50;5.13;;;;;;;-141.28;100.00;49309.72;5111961;28;20551;-76
2022/11/19 04:12:05;;;;;;;6.60;4.60;;;;;;;-141.28;100.00;49290.09;5112354;28;20203;-77
2022/11/19 04:14:33;;;;;;;6.03;4.70;;;;;;;-141.28;100.00;49292.06;5099237;28;20978;-78
2022/11/19 04:17:01;;;;;;;7.27;4.90;;;;;;;-141.28;100.00;49290.09;5112007;28;20502;-78
2022/11/19 04:19:29;;;;;;;9.87;5.43;;;;;;;-141.28;100.00;49325.41;5110604;28;20460;-79
2022/11/19 04:21:56;;;;;;;11.00;7.07;;;;;;;-141.28;100.00;49323.44;5112714;28;20199;-78
2022/11/19 04:24:22;;;;;;;14.03;8.77;;;;;;;-141.28;100.00;49394.09;5112166;28;20437;-75
2022/11/19 04:26:49;;;;;;;7.90;5.37;;;;;;;-141.28;100.00;49431.38;5111566;28;21021;-76
2022/11/19 04:29:16;;;;;;;11.27;6.20;;;;;;;-141.28;100.00;49472.59;5111685;28;20271;-79
2022/11/19 04:31:43;;;;;;;7.57;4.53;;;;;;;-141.28;100.00;49474.53;5111578;28;20202;-76
2022/11/19 04:34:10;;;;;;;6.80;4.40;;;;;;;-141.28;100.00;49462.78;5112425;28;20457;-75
2022/11/19 04:36:40;;;;;;;8.17;5.37;;;;;;;-141.28;100.00;49468.66;5099114;28;20461;-76
2022/11/19 04:39:08;;;;;;;8.23;5.50;;;;;;;-141.28;100.00;49478.47;5091502;28;20798;-75
2022/11/19 04:41:35;;;;;;;11.80;6.57;;;;;;;-141.28;100.00;49482.41;5111058;28;20445;-77
2022/11/19 04:44:02;;;;;;;15.20;7.83;;;;;;;-141.28;100.00;49494.16;5111509;28;20441;-76
2022/11/19 04:46:28;;;;;;;12.13;8.53;;;;;;;-141.28;100.00;49509.88;5111534;28;20480;-76
2022/11/19 04:48:56;;;;;;;12.63;7.80;;;;;;;-141.28;100.00;49521.63;5111124;28;20453;-77
2022/11/19 04:51:23;;;;;;;8.83;6.77;;;;;;;-141.28;100.00;49543.22;5111941;28;20448;-78
2022/11/19 04:53:51;;;;;;;7.70;5.93;;;;;;;-141.28;100.00;49527.53;5111708;28;20472;-76
2022/11/19 04:56:18;;;;;;;9.90;6.40;;;;;;;-141.28;100.00;49541.25;5111959;28;20286;-78
2022/11/19 04:58:46;;;;;;;9.03;6.30;;;;;;;-141.28;100.00;49545.19;5111344;28;20963;-77
2022/11/19 05:01:13;;;;;;;11.13;6.20;;;;;;;-141.28;100.00;49580.50;5111665;28;20461;-75
2022/11/19 05:03:40;;;;;;;9.67;7.07;;;;;;;-141.28;100.00;49584.44;5111416;28;20199;-76
2022/11/19 05:06:07;;;;;;;13.50;7.37;;;;;;;-141.28;100.00;49611.91;5111708;28;20543;-79
2022/11/19 05:08:34;;;;;;;12.67;7.20;;;;;;;-141.28;100.00;49627.59;5111901;28;20448;-76
2022/11/19 05:11:02;;;;;;;11.23;7.40;;;;;;;-141.28;100.00;49660.97;5100218;28;20446;-77
2022/11/19 05:13:29;;;;;;;11.03;7.40;;;;;;;-141.28;100.00;49710.03;5115589;28;20445;-76
2022/11/19 05:15:57;;;;;;;13.03;7.20;;;;;;;-141.28;100.00;49763.00;5120149;28;20549;-76
2022/11/19 05:18:24;;;;;;;12.17;7.70;;;;;;;-141.28;100.00;49794.41;5116608;28;20545;-78
2022/11/19 05:20:51;;;;;;;13.80;9.77;;;;;;;-141.28;100.00;49827.78;5104471;28;20448;-76
2022/11/19 05:23:18;;;;;;;16.87;11.23;;;;;;;-141.28;100.00;49839.56;5114843;28;20436;-77
2022/11/19 05:25:45;;;;;;;24.47;13.30;;;;;;;-141.28;100.00;49698.25;5105864;28;20538;-75
2022/11/19 05:28:13;;;;;;;24.07;15.00;;;;;;;-141.28;100.00;49847.41;5110996;28;20449;-78
2022/11/19 05:30:40;;;;;;;19.53;11.80;;;;;;;-141.28;100.00;49845.44;5114860;28;20494;-75
2022/11/19 05:33:07;;;;;;;17.23;11.13;;;;;;;-141.28;100.00;49816.00;5113367;28;20449;-76
2022/11/19 05:35:34;;;;;;;24.37;13.43;;;;;;;-141.28;100.00;49870.94;5114730;28;20523;-74
2022/11/19 05:38:01;;;;;;;30.70;17.70;;;;;;;-141.28;100.00;49863.09;5114759;28;20437;-77
2022/11/19 05:40:29;;;;;;;23.53;13.97;;;;;;;-141.28;100.00;49874.88;5114792;28;20437;-77
2022/11/19 05:42:56;;;;;;;32.77;18.13;;;;;;;-141.28;100.00;49870.94;5114795;28;20474;-79
2022/11/19 05:45:28;;;;;;;21.60;12.40;;;;;;;-141.28;100.00;49849.38;5114353;28;20535;-80
2022/11/19 05:47:55;;;;;;;26.03;15.43;;;;;;;-141.28;100.00;49878.81;5114311;28;20441;-76
2022/11/19 05:50:22;;;;;;;32.80;16.07;;;;;;;-141.28;100.00;49953.38;5114829;28;21037;-75
2022/11/19 05:52:49;;;;;;;23.77;13.23;;;;;;;-141.28;100.00;49918.06;5116719;28;20521;-78
2022/11/19 05:55:19;;;;;;;24.20;13.43;;;;;;;-141.28;100.00;49882.72;5114765;28;20505;-76
2022/11/19 05:57:46;;;;;;;17.73;11.23;;;;;;;-141.28;100.00;49847.41;5114702;28;20449;-77
2022/11/19 06:00:14;;;;;;;20.20;12.60;;;;;;;-141.28;100.00;49867.03;5114635;28;20453;-77
2022/11/19 06:02:42;;;;;;;20.87;12.03;;;;;;;-141.28;100.00;49816.00;5114332;28;20950;-78
2022/11/19 06:05:10;;;;;;;12.23;7.37;;;;;;;-141.28;100.00;49831.69;5114512;28;20440;-76
2022/11/19 06:07:37;;;;;;;23.97;11.10;;;;;;;-141.28;100.00;49835.63;5113988;28;20492;-77
2022/11/19 06:10:06;;;;;;;15.60;9.23;;;;;;;-141.28;100.00;49819.94;5114013;28;20513;-75
2022/11/19 06:12:33;;;;;;;48.80;30.47;;;;;;;-141.28;100.00;49827.78;5114132;28;20441;-75
2022/11/19 06:15:01;;;;;;;28.00;17.60;;;;;;;-141.28;100.00;49782.63;5113920;28;20485;-76
2022/11/19 06:17:27;;;;;;;24.17;16.17;;;;;;;-141.28;100.00;49819.94;5114491;28;20990;-77
2022/11/19 06:19:56;;;;;;;25.20;16.17;;;;;;;-141.28;100.00;49851.31;5114171;28;20948;-78
2022/11/19 06:22:23;;;;;;;28.17;19.67;;;;;;;-141.28;100.00;49855.25;5114186;28;20448;-76
2022/11/19 06:24:49;;;;;;;18.33;11.87;;;;;;;-141.28;100.00;49992.63;5114129;28;20448;-76
2022/11/19 06:27:17;;;;;;;18.30;11.87;;;;;;;-141.28;100.00;50679.59;5123253;28;20492;-75
2022/11/19 06:29:45;;;;;;;18.97;13.67;;;;;;;-141.28;100.00;51380.47;5137426;28;20453;-77
2022/11/19 06:32:12;;;;;;;18.20;10.60;;;;;;;-141.28;100.00;50326.28;5130430;28;20441;-76
2022/11/19 06:34:40;;;;;;;18.77;10.63;;;;;;;-141.28;100.00;50981.91;5122755;28;20184;-75
2022/11/19 06:37:09;;;;;;;13.80;7.80;;;;;;;-141.28;100.00;51276.41;5129684;28;20202;-75
2022/11/19 06:39:36;;;;;;;14.77;8.03;;;;;;;-141.28;100.00;51404.03;5126814;28;20505;-77
2022/11/19 06:44:43;;;;;;;15.60;9.33;;;;;;;-141.28;100.00;50086.84;5114499;28;20203;-77
2022/11/19 06:47:10;;;;;;;14.67;9.33;;;;;;;-141.28;100.00;50656.06;5114841;28;20219;-75
2022/11/19 06:49:37;;;;;;;22.03;10.33;;;;;;;-141.28;100.00;50326.28;5115930;28;20256;-77
2022/11/19 06:52:04;;;;;;;17.47;9.37;;;;;;;-141.28;100.00;49749.28;5114592;28;20277;-76
2022/11/19 06:54:32;;;;;;;13.30;7.70;;;;;;;-141.28;100.00;49513.78;5114758;28;20738;-73
2022/11/19 06:56:59;;;;;;;11.90;6.73;;;;;;;-141.28;100.00;49392.13;5115067;28;20224;-74
2022/11/19 06:59:26;;;;;;;15.20;7.10;;;;;;;-141.28;100.00;49478.47;5114701;28;20195;-76
2022/11/19 07:01:54;;;;;;;9.93;6.73;;;;;;;-141.28;100.00;49456.88;5113559;28;20240;-76
2022/11/19 07:04:23;;;;;;;9.10;6.43;;;;;;;-141.28;100.00;49364.66;5113546;28;20194;-74
2022/11/19 07:06:50;;;;;;;12.20;7.47;;;;;;;-141.28;100.00;49662.94;5112959;28;20230;-78
2022/11/19 07:09:17;;;;;;;16.03;8.10;;;;;;;-141.28;100.00;49772.81;5102177;28;20199;-75
2022/11/19 07:11:46;;;;;;;10.80;6.77;;;;;;;-141.28;100.00;49505.94;5113175;28;20199;-74
2022/11/19 07:14:13;;;;;;;11.67;6.07;;;;;;;-141.28;100.00;49480.44;5113146;28;20215;-77
2022/11/19 07:16:40;;;;;;;9.20;5.77;;;;;;;-141.28;100.00;49348.97;5112460;28;20202;-75
2022/11/19 07:19:08;;;;;;;11.43;5.83;;;;;;;-141.28;100.00;49588.34;5112092;28;20238;-77
2022/11/19 07:21:35;;;;;;;11.23;5.63;;;;;;;-141.28;100.00;49392.13;5111997;28;20203;-77
2022/11/19 07:24:07;;;;;;;7.63;4.90;;;;;;;-141.28;100.00;49207.69;5113895;28;20199;-75
2022/11/19 07:26:36;;;;;;;6.27;4.70;;;;;;;-141.28;100.00;49278.31;5113447;28;20222;-78
2022/11/19 07:29:15;;;;;;;8.43;5.57;;;;;;;-141.28;100.00;49131.16;5112047;28;20209;-77
2022/11/19 07:31:42;;;;;;;10.00;5.33;;;;;;;-141.28;100.00;48991.84;5112809;28;20202;-76
2022/11/19 07:34:11;;;;;;;7.60;4.80;;;;;;;-141.28;100.00;49152.75;5112156;28;20224;-76
2022/11/19 07:36:38;;;;;;;9.00;5.50;;;;;;;-141.28;100.00;49074.25;5111577;28;20573;-76
2022/11/19 07:39:11;;;;;;;7.07;4.60;;;;;;;-141.28;100.00;49207.69;5112889;28;20306;-76
2022/11/19 07:44:24;;;;;;;5.43;4.50;;;;;;;-141.28;100.00;49246.94;5112494;28;20209;-77
2022/11/19 07:46:52;;;;;;;8.77;4.60;;;;;;;-141.28;100.00;49243.00;5099283;28;20297;-76
2022/11/19 07:49:19;;;;;;;7.57;6.10;;;;;;;-141.28;100.00;49229.28;5113737;28;20681;-75
2022/11/19 07:51:46;;;;;;;7.90;5.30;;;;;;;-141.28;100.00;49215.53;5113524;28;20699;-76
2022/11/19 07:54:14;;;;;;;8.40;4.80;;;;;;;-141.28;100.00;49201.81;5112205;28;20515;-74
2022/11/19 07:56:42;;;;;;;6.37;4.63;;;;;;;-141.28;100.00;49184.13;5111778;28;20209;-77
2022/11/19 07:59:11;;;;;;;5.70;4.33;;;;;;;-141.28;100.00;49097.81;5112184;28;20203;-77
2022/11/19 08:01:40;;;;;;;7.93;5.07;;;;;;;-141.28;100.00;49121.34;5111764;28;20207;-76
2022/11/19 08:04:07;;;;;;;8.47;5.20;;;;;;;-141.28;100.00;48972.25;5112014;28;20203;-78
2022/11/19 08:06:35;;;;;;;10.60;5.13;;;;;;;-141.28;100.00;49046.78;5111278;28;20233;-77
2022/11/19 08:09:03;;;;;;;8.70;5.60;;;;;;;-141.28;100.00;49058.56;5111646;28;20236;-76
2022/11/19 08:11:30;;;;;;;7.20;5.37;;;;;;;-141.28;100.00;48991.84;5111614;28;20194;-75
2022/11/19 08:13:59;;;;;;;6.30;5.10;;;;;;;-141.28;100.00;48952.63;5112039;28;20255;-75
2022/11/19 08:19:16;;;;;;;6.00;4.53;;;;;;;-141.28;100.00;48938.88;5112175;28;20594;-75
2022/11/19 08:21:45;;;;;;;7.43;6.10;;;;;;;-141.28;100.00;48868.25;5112024;28;20251;-77
2022/11/19 08:24:14;;;;;;;8.93;5.70;;;;;;;-141.28;100.00;48842.75;5111941;28;20256;-76
2022/11/19 08:26:42;;;;;;;9.70;5.50;;;;;;;-141.28;100.00;48827.06;5111559;28;20222;-75
2022/11/19 08:29:09;;;;;;;7.67;4.83;;;;;;;-141.28;100.00;48785.84;5114436;28;20666;-78
2022/11/19 08:31:36;;;;;;;6.83;5.40;;;;;;;-141.28;100.00;48748.56;5111264;28;20199;-75
2022/11/19 08:34:03;;;;;;;8.27;5.80;;;;;;;-141.28;100.00;48776.03;5109871;28;20206;-74
2022/11/19 08:36:33;;;;;;;6.73;5.30;;;;;;;-141.28;100.00;48779.97;5111707;28;20251;-77
2022/11/19 08:39:01;;;;;;;10.00;5.63;;;;;;;-141.28;100.00;48787.81;5111399;28;20264;-76
2022/11/19 08:44:12;;;;;;;10.20;5.83;;;;;;;-141.28;100.00;48774.09;5100658;28;20291;-75
2022/11/19 08:46:40;;;;;;;9.63;5.67;;;;;;;-141.28;100.00;48742.69;5112756;28;20233;-75
2022/11/19 08:49:07;;;;;;;8.77;5.23;;;;;;;-141.28;100.00;48746.63;5115226;28;20348;-77
2022/11/19 08:51:37;;;;;;;9.77;5.67;;;;;;;-141.28;100.00;48783.91;5115337;28;20251;-74
2022/11/19 08:54:04;;;;;;;9.13;5.03;;;;;;;-141.28;100.00;48764.28;5121090;28;20199;-76
2022/11/19 08:56:32;;;;;;;8.43;4.63;;;;;;;-141.28;100.00;48813.31;5123848;28;20245;-75
2022/11/19 08:58:59;;;;;;;4.73;3.97;;;;;;;-141.28;100.00;48846.69;5117034;28;20297;-76
2022/11/19 09:01:26;;;;;;;7.83;4.60;;;;;;;-141.28;100.00;48860.41;5116255;28;20195;-77
2022/11/19 09:03:53;;;;;;;6.23;4.37;;;;;;;-141.28;100.00;48856.47;5115503;28;20323;-76
2022/11/19 09:06:19;;;;;;;11.20;4.40;;;;;;;-141.28;100.00;48878.06;5115158;28;20205;-75
2022/11/19 09:08:48;;;;;;;4.90;4.10;;;;;;;-141.28;100.00;48948.69;5114716;28;20226;-75
2022/11/19 09:11:16;;;;;;;7.17;3.63;;;;;;;-141.28;100.00;49080.16;5115224;28;20218;-75
2022/11/19 09:13:44;;;;;;;6.77;4.60;;;;;;;-141.28;100.00;48974.19;5114895;28;20194;-77
2022/11/19 09:16:14;;;;;;;13.00;4.50;;;;;;;-141.28;100.00;48954.59;5115006;28;20248;-77
2022/11/19 09:18:41;;;;;;;5.30;3.90;;;;;;;-141.28;100.00;48972.25;5114689;28;20708;-75
2022/11/19 09:21:09;;;;;;;5.77;3.87;;;;;;;-141.28;100.00;48964.38;5114418;28;20770;-75
2022/11/19 09:23:36;;;;;;;9.87;4.80;;;;;;;-141.28;100.00;48956.53;5114371;28;20203;-74
2022/11/19 09:26:07;;;;;;;7.33;4.70;;;;;;;-141.28;100.00;48944.78;5114689;28;20633;-76
2022/11/19 09:28:34;;;;;;;7.83;4.23;;;;;;;-141.28;100.00;48917.31;5114956;28;20291;-75
2022/11/19 09:31:04;;;;;;;6.03;4.20;;;;;;;-141.28;100.00;48885.91;5114767;28;20561;-75
2022/11/19 09:33:32;;;;;;;6.67;3.83;;;;;;;-141.28;100.00;48970.28;5114073;28;20195;-75
2022/11/19 09:36:02;;;;;;;3.20;2.80;;;;;;;-141.28;100.00;48976.16;5115549;28;20264;-77
2022/11/19 09:38:30;;;;;;;4.93;3.50;;;;;;;-141.28;100.00;48938.88;5114644;28;20252;-75
2022/11/19 09:41:03;;;;;;;4.93;3.37;;;;;;;-141.28;100.00;48954.59;5115710;28;20195;-75
2022/11/19 09:43:44;;;;;;;5.90;3.33;;;;;;;-141.28;100.00;48987.94;5114805;28;20263;-77
2022/11/19 09:46:16;;;;;;;4.53;2.70;;;;;;;-141.28;100.00;49023.25;5116489;28;20591;-75
2022/11/19 09:48:44;;;;;;;5.47;3.37;;;;;;;-141.28;100.00;49023.25;5114374;28;20657;-78
2022/11/19 09:51:14;;;;;;;9.07;3.90;;;;;;;-141.28;100.00;49074.25;5113988;28;20226;-75
2022/11/19 09:53:47;;;;;;;8.70;5.13;;;;;;;-141.28;100.00;49066.41;5114994;28;20205;-75
2022/11/19 09:56:17;;;;;;;5.90;4.03;;;;;;;-141.28;100.00;49101.72;5101830;28;20207;-78
2022/11/19 09:58:46;;;;;;;8.33;5.00;;;;;;;-141.28;100.00;49105.66;5114057;28;20195;-75
2022/11/19 10:01:16;;;;;;;10.60;5.53;;;;;;;-141.28;100.00;49144.91;5114483;28;20607;-74
2022/11/19 10:03:47;;;;;;;9.27;4.90;;;;;;;-141.28;100.00;49180.22;5114424;28;20207;-79
2022/11/19 10:06:40;;;;;;;11.03;6.70;;;;;;;-141.28;100.00;49329.34;5113102;28;20195;-76
2022/11/19 10:09:24;;;;;;;9.50;5.40;;;;;;;-141.28;100.00;49376.44;5113787;28;20198;-76
2022/11/19 10:12:03;;;;;;;18.27;5.93;;;;;;;-141.28;100.00;49376.44;5113700;28;20260;-76
2022/11/19 10:14:54;;;;;;;14.33;6.63;;;;;;;-141.28;100.00;49633.50;5113905;28;20211;-76
2022/11/19 10:17:33;;;;;;;12.40;6.33;;;;;;;-141.28;100.00;49708.06;5113971;28;20281;-78
2022/11/19 10:20:20;;;;;;;13.17;6.00;;;;;;;-141.28;100.00;50043.66;5113889;28;20230;-76
2022/11/19 10:22:51;;;;;;;12.73;5.67;;;;;;;-141.28;100.00;50200.66;5101837;28;20198;-79
2022/11/19 10:25:21;;;;;;;11.33;5.40;;;;;;;-141.28;100.00;50106.47;5113678;28;20237;-78
2022/11/19 10:27:53;;;;;;;6.83;5.30;;;;;;;-141.28;100.00;50232.06;5113763;28;20223;-79
2022/11/19 10:30:25;;;;;;;11.67;5.50;;;;;;;-141.28;100.00;50257.59;5113535;28;20256;-75
2022/11/19 10:32:58;;;;;;;11.67;5.70;;;;;;;-141.28;100.00;50342.00;5112073;28;20198;-75
2022/11/19 10:35:31;;;;;;;11.57;4.77;;;;;;;-141.28;100.00;50471.53;5113780;28;20599;-76
2022/11/19 10:38:01;;;;;;;8.17;5.07;;;;;;;-141.28;100.00;50593.22;5113702;28;20248;-78
2022/11/19 10:40:34;;;;;;;9.97;5.20;;;;;;;-141.28;100.00;50720.81;5113298;28;20203;-77
2022/11/19 10:43:15;;;;;;;9.40;5.33;;;;;;;-141.28;100.00;50911.25;5113816;28;20226;-79
2022/11/19 10:45:44;;;;;;;11.37;4.97;;;;;;;-141.28;100.00;51062.41;5106630;28;20718;-75
2022/11/19 10:48:19;;;;;;;13.87;5.53;;;;;;;-141.28;100.00;51044.75;5113610;28;20666;-77
2022/11/19 10:50:46;;;;;;;11.97;5.40;;;;;;;-141.28;100.00;51119.34;5113546;28;20281;-75
2022/11/19 10:53:19;;;;;;;6.90;4.90;;;;;;;-141.28;100.00;51245.00;5112922;28;20274;-76
2022/11/19 10:55:50;;;;;;;7.43;5.00;;;;;;;-141.28;100.00;51166.47;5113354;28;20203;-76
2022/11/19 10:58:23;;;;;;;8.23;5.47;;;;;;;-141.28;100.00;51105.59;5113520;28;20206;-75
2022/11/19 11:00:54;;;;;;;8.97;4.80;;;;;;;-141.28;100.00;51138.97;5113334;28;20199;-76
2022/11/19 11:03:26;;;;;;;6.37;4.53;;;;;;;-141.28;100.00;51119.34;5114016;28;20198;-76
2022/11/19 11:06:04;;;;;;;9.50;4.50;;;;;;;-141.28;100.00;51129.16;5113277;28;20199;-75
2022/11/19 11:08:32;;;;;;;3.30;3.00;;;;;;;-141.28;100.00;51017.25;5110313;28;20267;-75
2022/11/19 11:10:59;;;;;;;3.80;3.13;;;;;;;-141.28;100.00;50989.78;5111780;28;20206;-74
2022/11/19 11:16:25;;;;;;;3.00;2.60;;;;;;;-141.28;100.00;50919.09;5112257;28;20202;-76
2022/11/19 11:18:53;;;;;;;6.57;2.97;;;;;;;-141.28;100.00;50726.72;5112317;28;20234;-75
2022/11/19 11:21:38;;;;;;;5.57;2.60;;;;;;;-141.28;100.00;50707.09;5112990;28;20199;-76
2022/11/19 11:24:06;;;;;;;4.80;2.90;;;;;;;-141.28;100.00;50589.31;5112640;28;20230;-77
2022/11/19 11:26:35;;;;;;;8.30;3.00;;;;;;;-141.28;100.00;50440.13;5115598;28;20673;-75
2022/11/19 11:29:04;;;;;;;7.00;3.23;;;;;;;-141.28;100.00;50373.38;5114666;28;20226;-76
2022/11/19 11:31:36;;;;;;;6.73;2.87;;;;;;;-141.28;100.00;50334.13;5112154;28;20205;-75
2022/11/19 11:34:04;;;;;;;6.53;2.87;;;;;;;-141.28;100.00;50340.03;5111310;28;20518;-78
2022/11/19 11:36:34;;;;;;;5.27;2.10;;;;;;;-141.28;100.00;50279.19;5112060;28;20206;-78
2022/11/19 11:39:03;;;;;;;7.90;2.40;;;;;;;-141.28;100.00;50259.56;5098778;28;20199;-78
2022/11/19 11:41:39;;;;;;;5.40;2.43;;;;;;;-141.28;100.00;50349.84;5112177;28;20735;-78
2022/11/19 11:44:16;;;;;;;9.37;2.57;;;;;;;-141.28;100.00;50438.16;5112494;28;20259;-76